sensor_id;sensor_type;location;lat;lon;timestamp;pressure;altitude;pressure_sealevel;temperature;humidity
13235;BME280;6683;48.506;9.050;2023-07-02T00:02:02;97548.13;;;20.96;67.77
13235;BME280;6683;48.506;9.050;2023-07-02T00:05:05;97539.81;;;20.98;68.14
13235;BME280;6683;48.506;9.050;2023-07-02T00:08:07;97548.38;;;21.00;68.00
13235;BME280;6683;48.506;9.050;2023-07-02T00:11:09;97541.94;;;21.01;67.52
13235;BME280;6683;48.506;9.050;2023-07-02T00:14:15;97534.69;;;21.01;67.50
13235;BME280;6683;48.506;9.050;2023-07-02T00:17:17;97550.31;;;21.04;67.48
13235;BME280;6683;48.506;9.050;2023-07-02T00:20:19;97545.75;;;21.05;67.57
13235;BME280;6683;48.506;9.050;2023-07-02T00:23:22;97540.38;;;21.05;67.33
13235;BME280;6683;48.506;9.050;2023-07-02T00:26:24;97550.84;;;21.06;67.25
13235;BME280;6683;48.506;9.050;2023-07-02T00:29:28;97553.53;;;21.06;67.25
13235;BME280;6683;48.506;9.050;2023-07-02T00:32:30;97552.44;;;21.07;66.77
13235;BME280;6683;48.506;9.050;2023-07-02T00:35:33;97554.06;;;21.08;66.66
13235;BME280;6683;48.506;9.050;2023-07-02T00:38:35;97557.81;;;21.07;66.72
13235;BME280;6683;48.506;9.050;2023-07-02T00:41:37;97558.06;;;21.06;66.82
13235;BME280;6683;48.506;9.050;2023-07-02T00:44:42;97560.22;;;21.04;66.58
13235;BME280;6683;48.506;9.050;2023-07-02T00:47:45;97554.84;;;21.04;66.57
13235;BME280;6683;48.506;9.050;2023-07-02T00:50:48;97555.66;;;21.04;66.54
13235;BME280;6683;48.506;9.050;2023-07-02T00:53:53;97546.81;;;21.04;66.86
13235;BME280;6683;48.506;9.050;2023-07-02T00:56:56;97557.25;;;21.05;66.50
13235;BME280;6683;48.506;9.050;2023-07-02T01:00:07;97561.84;;;21.05;66.41
13235;BME280;6683;48.506;9.050;2023-07-02T01:03:11;97561.84;;;21.05;66.27
13235;BME280;6683;48.506;9.050;2023-07-02T01:06:14;97553.81;;;21.05;66.07
13235;BME280;6683;48.506;9.050;2023-07-02T01:09:16;97561.03;;;21.04;66.25
13235;BME280;6683;48.506;9.050;2023-07-02T01:12:18;97563.19;;;21.02;65.89
13235;BME280;6683;48.506;9.050;2023-07-02T01:15:23;97555.91;;;20.98;66.30
13235;BME280;6683;48.506;9.050;2023-07-02T01:18:26;97544.91;;;20.94;65.93
13235;BME280;6683;48.506;9.050;2023-07-02T01:21:30;97556.16;;;20.91;65.91
13235;BME280;6683;48.506;9.050;2023-07-02T01:24:33;97558.84;;;20.86;65.80
13235;BME280;6683;48.506;9.050;2023-07-02T01:27:35;97555.34;;;20.81;66.23
13235;BME280;6683;48.506;9.050;2023-07-02T01:30:38;97565.00;;;20.77;66.17
13235;BME280;6683;48.506;9.050;2023-07-02T01:33:40;97560.44;;;20.72;66.46
13235;BME280;6683;48.506;9.050;2023-07-02T01:36:44;97551.88;;;20.65;66.33
13235;BME280;6683;48.506;9.050;2023-07-02T01:39:46;97561.50;;;20.61;66.60
13235;BME280;6683;48.506;9.050;2023-07-02T01:42:48;97565.75;;;20.57;67.02
13235;BME280;6683;48.506;9.050;2023-07-02T01:45:50;97558.53;;;20.52;66.89
13235;BME280;6683;48.506;9.050;2023-07-02T01:48:53;97560.69;;;20.50;67.03
13235;BME280;6683;48.506;9.050;2023-07-02T01:51:58;97566.84;;;20.46;67.12
13235;BME280;6683;48.506;9.050;2023-07-02T01:55:01;97559.03;;;20.39;67.07
13235;BME280;6683;48.506;9.050;2023-07-02T01:58:04;97559.81;;;20.35;67.14
13235;BME280;6683;48.506;9.050;2023-07-02T02:01:06;97556.06;;;20.31;67.18
13235;BME280;6683;48.506;9.050;2023-07-02T02:04:09;97553.34;;;20.26;67.21
13235;BME280;6683;48.506;9.050;2023-07-02T02:07:13;97556.56;;;20.23;67.29
13235;BME280;6683;48.506;9.050;2023-07-02T02:10:15;97561.41;;;20.21;67.39
13235;BME280;6683;48.506;9.050;2023-07-02T02:13:17;97563.50;;;20.19;67.44
13235;BME280;6683;48.506;9.050;2023-07-02T02:16:20;97565.09;;;20.15;67.57
13235;BME280;6683;48.506;9.050;2023-07-02T02:19:22;97562.94;;;20.12;67.70
13235;BME280;6683;48.506;9.050;2023-07-02T02:22:26;97562.94;;;20.07;67.77
13235;BME280;6683;48.506;9.050;2023-07-02T02:25:28;97558.34;;;20.02;67.55
13235;BME280;6683;48.506;9.050;2023-07-02T02:28:30;97558.31;;;19.97;67.71
13235;BME280;6683;48.506;9.050;2023-07-02T02:31:33;97561.53;;;19.94;67.87
13235;BME280;6683;48.506;9.050;2023-07-02T02:34:35;97553.75;;;19.92;67.98
13235;BME280;6683;48.506;9.050;2023-07-02T02:37:39;97562.03;;;19.91;67.96
13235;BME280;6683;48.506;9.050;2023-07-02T02:40:42;97555.88;;;19.90;68.16
13235;BME280;6683;48.506;9.050;2023-07-02T02:43:44;97544.38;;;19.90;68.43
13235;BME280;6683;48.506;9.050;2023-07-02T02:46:46;97544.38;;;19.90;68.38
13235;BME280;6683;48.506;9.050;2023-07-02T02:49:48;97545.97;;;19.91;68.41
13235;BME280;6683;48.506;9.050;2023-07-02T02:52:51;97548.38;;;19.92;68.38
13235;BME280;6683;48.506;9.050;2023-07-02T02:55:54;97550.00;;;19.93;68.52
13235;BME280;6683;48.506;9.050;2023-07-02T02:58:56;97556.97;;;19.94;68.66
13235;BME280;6683;48.506;9.050;2023-07-02T03:01:58;97547.88;;;19.96;68.66
13235;BME280;6683;48.506;9.050;2023-07-02T03:05:01;97557.50;;;19.97;68.65
13235;BME280;6683;48.506;9.050;2023-07-02T03:08:05;97564.75;;;19.96;68.95
13235;BME280;6683;48.506;9.050;2023-07-02T03:11:08;97564.47;;;19.98;68.95
13235;BME280;6683;48.506;9.050;2023-07-02T03:14:10;97567.16;;;19.98;69.33
13235;BME280;6683;48.506;9.050;2023-07-02T03:17:13;97566.91;;;19.99;69.07
13235;BME280;6683;48.506;9.050;2023-07-02T03:20:15;97573.59;;;20.02;69.24
13235;BME280;6683;48.506;9.050;2023-07-02T03:23:20;97570.13;;;20.01;69.24
13235;BME280;6683;48.506;9.050;2023-07-02T03:26:22;97585.38;;;20.01;69.28
13235;BME280;6683;48.506;9.050;2023-07-02T03:29:25;97588.59;;;19.98;69.14
13235;BME280;6683;48.506;9.050;2023-07-02T03:32:27;97604.63;;;19.92;69.27
13235;BME280;6683;48.506;9.050;2023-07-02T03:35:29;97596.81;;;19.81;68.93
13235;BME280;6683;48.506;9.050;2023-07-02T03:38:33;97606.13;;;19.68;69.01
13235;BME280;6683;48.506;9.050;2023-07-02T03:41:35;97611.91;;;19.55;69.12
13235;BME280;6683;48.506;9.050;2023-07-02T03:44:37;97617.19;;;19.45;69.29
13235;BME280;6683;48.506;9.050;2023-07-02T03:47:41;97616.31;;;19.35;69.36
13235;BME280;6683;48.506;9.050;2023-07-02T03:50:43;97623.16;;;19.26;69.56
13235;BME280;6683;48.506;9.050;2023-07-02T03:53:47;97641.88;;;19.21;69.86
13235;BME280;6683;48.506;9.050;2023-07-02T03:56:49;97648.22;;;19.14;69.74
13235;BME280;6683;48.506;9.050;2023-07-02T03:59:51;97659.13;;;19.08;69.80
13235;BME280;6683;48.506;9.050;2023-07-02T04:02:54;97664.44;;;19.03;70.03
13235;BME280;6683;48.506;9.050;2023-07-02T04:05:56;97668.66;;;18.99;70.19
13235;BME280;6683;48.506;9.050;2023-07-02T04:09:00;97676.66;;;18.94;70.11
13235;BME280;6683;48.506;9.050;2023-07-02T04:12:03;97675.28;;;18.91;70.22
13235;BME280;6683;48.506;9.050;2023-07-02T04:15:08;97670.94;;;18.85;70.44
13235;BME280;6683;48.506;9.050;2023-07-02T04:18:10;97683.44;;;18.80;70.54
13235;BME280;6683;48.506;9.050;2023-07-02T04:21:13;97687.13;;;18.74;70.61
13235;BME280;6683;48.506;9.050;2023-07-02T04:24:16;97689.50;;;18.70;71.01
13235;BME280;6683;48.506;9.050;2023-07-02T04:27:18;97688.94;;;18.68;70.93
13235;BME280;6683;48.506;9.050;2023-07-02T04:30:21;97695.59;;;18.66;71.12
13235;BME280;6683;48.506;9.050;2023-07-02T04:33:23;97694.78;;;18.65;71.28
13235;BME280;6683;48.506;9.050;2023-07-02T04:36:25;97699.88;;;18.67;71.42
13235;BME280;6683;48.506;9.050;2023-07-02T04:39:30;97696.16;;;18.68;71.33
13235;BME280;6683;48.506;9.050;2023-07-02T04:42:32;97697.22;;;18.67;71.38
13235;BME280;6683;48.506;9.050;2023-07-02T04:45:35;97696.16;;;18.68;71.54
13235;BME280;6683;48.506;9.050;2023-07-02T04:48:38;97698.31;;;18.71;71.62
13235;BME280;6683;48.506;9.050;2023-07-02T04:51:40;97697.25;;;18.72;71.85
13235;BME280;6683;48.506;9.050;2023-07-02T04:54:44;97708.50;;;18.74;71.92
13235;BME280;6683;48.506;9.050;2023-07-02T04:57:46;97703.72;;;18.76;72.04
13235;BME280;6683;48.506;9.050;2023-07-02T05:00:48;97708.59;;;18.79;72.08
13235;BME280;6683;48.506;9.050;2023-07-02T05:03:51;97703.53;;;18.82;72.28
13235;BME280;6683;48.506;9.050;2023-07-02T05:06:53;97713.75;;;18.85;72.29
13235;BME280;6683;48.506;9.050;2023-07-02T05:09:57;97706.00;;;18.89;72.35
13235;BME280;6683;48.506;9.050;2023-07-02T05:12:59;97713.53;;;18.92;72.34
13235;BME280;6683;48.506;9.050;2023-07-02T05:16:02;97717.34;;;18.96;72.55
13235;BME280;6683;48.506;9.050;2023-07-02T05:19:04;97720.84;;;19.01;72.41
13235;BME280;6683;48.506;9.050;2023-07-02T05:22:07;97725.72;;;19.04;72.35
13235;BME280;6683;48.506;9.050;2023-07-02T05:25:11;97727.06;;;19.07;72.42
13235;BME280;6683;48.506;9.050;2023-07-02T05:28:13;97724.16;;;19.08;72.45
13235;BME280;6683;48.506;9.050;2023-07-02T05:31:16;97725.50;;;19.11;72.56
13235;BME280;6683;48.506;9.050;2023-07-02T05:34:18;97731.97;;;19.15;72.50
13235;BME280;6683;48.506;9.050;2023-07-02T05:37:20;97736.25;;;19.16;72.48
13235;BME280;6683;48.506;9.050;2023-07-02T05:40:24;97734.97;;;19.19;72.84
13235;BME280;6683;48.506;9.050;2023-07-02T05:43:26;97738.47;;;19.24;72.66
13235;BME280;6683;48.506;9.050;2023-07-02T05:46:28;97737.19;;;19.27;72.59
13235;BME280;6683;48.506;9.050;2023-07-02T05:49:31;97734.78;;;19.30;72.70
13235;BME280;6683;48.506;9.050;2023-07-02T05:52:33;97735.69;;;19.36;72.96
13235;BME280;6683;48.506;9.050;2023-07-02T05:55:37;97732.25;;;19.40;72.90
13235;BME280;6683;48.506;9.050;2023-07-02T05:58:40;97735.78;;;19.46;72.75
13235;BME280;6683;48.506;9.050;2023-07-02T06:01:42;97736.06;;;19.49;72.78
13235;BME280;6683;48.506;9.050;2023-07-02T06:04:44;97742.53;;;19.53;72.71
13235;BME280;6683;48.506;9.050;2023-07-02T06:07:46;97754.34;;;19.57;72.61
13235;BME280;6683;48.506;9.050;2023-07-02T06:10:51;97742.59;;;19.58;72.71
13235;BME280;6683;48.506;9.050;2023-07-02T06:13:53;97747.44;;;19.61;72.61
13235;BME280;6683;48.506;9.050;2023-07-02T06:16:55;97740.75;;;19.64;72.81
13235;BME280;6683;48.506;9.050;2023-07-02T06:19:59;97743.22;;;19.70;72.92
13235;BME280;6683;48.506;9.050;2023-07-02T06:23:02;97745.69;;;19.77;73.02
13235;BME280;6683;48.506;9.050;2023-07-02T06:26:06;97738.00;;;19.85;73.35
13235;BME280;6683;48.506;9.050;2023-07-02T06:29:08;97737.81;;;19.97;73.31
13235;BME280;6683;48.506;9.050;2023-07-02T06:32:11;97750.22;;;20.08;73.27
13235;BME280;6683;48.506;9.050;2023-07-02T06:35:13;97749.00;;;20.21;73.00
13235;BME280;6683;48.506;9.050;2023-07-02T06:38:15;97749.59;;;20.33;72.96
13235;BME280;6683;48.506;9.050;2023-07-02T06:41:19;97747.50;;;20.40;72.84
13235;BME280;6683;48.506;9.050;2023-07-02T06:44:21;97745.69;;;20.50;72.57
13235;BME280;6683;48.506;9.050;2023-07-02T06:47:24;97753.50;;;20.62;72.45
13235;BME280;6683;48.506;9.050;2023-07-02T06:50:26;97751.41;;;20.74;72.33
13235;BME280;6683;48.506;9.050;2023-07-02T06:53:29;97752.25;;;20.85;72.05
13235;BME280;6683;48.506;9.050;2023-07-02T06:56:32;97756.88;;;20.94;72.05
13235;BME280;6683;48.506;9.050;2023-07-02T06:59:35;97767.34;;;21.01;71.78
13235;BME280;6683;48.506;9.050;2023-07-02T07:02:37;97765.81;;;21.05;71.19
13235;BME280;6683;48.506;9.050;2023-07-02T07:05:40;97766.59;;;21.05;70.88
13235;BME280;6683;48.506;9.050;2023-07-02T07:08:42;97764.75;;;21.11;71.24
13235;BME280;6683;48.506;9.050;2023-07-02T07:11:46;97762.59;;;21.13;70.60
13235;BME280;6683;48.506;9.050;2023-07-02T07:14:48;97768.75;;;21.13;70.63
13235;BME280;6683;48.506;9.050;2023-07-02T07:17:50;97778.44;;;21.14;70.23
13235;BME280;6683;48.506;9.050;2023-07-02T07:20:52;97769.28;;;21.15;69.90
13235;BME280;6683;48.506;9.050;2023-07-02T07:23:54;97780.56;;;21.17;70.09
13235;BME280;6683;48.506;9.050;2023-07-02T07:26:58;97779.00;;;21.21;69.96
13235;BME280;6683;48.506;9.050;2023-07-02T07:30:00;97773.63;;;21.21;69.43
13235;BME280;6683;48.506;9.050;2023-07-02T07:33:02;97769.06;;;21.17;69.21
13235;BME280;6683;48.506;9.050;2023-07-02T07:36:04;97766.41;;;21.27;69.93
13235;BME280;6683;48.506;9.050;2023-07-02T07:39:07;97777.97;;;21.37;69.62
13235;BME280;6683;48.506;9.050;2023-07-02T07:42:10;97778.25;;;21.46;69.41
13235;BME280;6683;48.506;9.050;2023-07-02T07:45:12;97774.50;;;21.57;69.29
13235;BME280;6683;48.506;9.050;2023-07-02T07:48:15;97781.22;;;21.70;69.20
13235;BME280;6683;48.506;9.050;2023-07-02T07:51:17;97771.06;;;21.87;69.10
13235;BME280;6683;48.506;9.050;2023-07-02T07:54:19;97771.06;;;22.02;69.19
13235;BME280;6683;48.506;9.050;2023-07-02T07:57:24;97774.00;;;22.15;68.87
13235;BME280;6683;48.506;9.050;2023-07-02T08:00:26;97761.63;;;22.30;68.69
13235;BME280;6683;48.506;9.050;2023-07-02T08:03:29;97769.94;;;22.38;68.31
13235;BME280;6683;48.506;9.050;2023-07-02T08:06:31;97765.88;;;22.51;68.08
13235;BME280;6683;48.506;9.050;2023-07-02T08:09:33;97762.91;;;22.62;67.43
13235;BME280;6683;48.506;9.050;2023-07-02T08:12:37;97766.66;;;22.71;67.43
13235;BME280;6683;48.506;9.050;2023-07-02T08:15:40;97759.66;;;22.75;66.57
13235;BME280;6683;48.506;9.050;2023-07-02T08:18:42;97774.13;;;22.84;66.92
13235;BME280;6683;48.506;9.050;2023-07-02T08:21:44;97778.41;;;22.95;66.31
13235;BME280;6683;48.506;9.050;2023-07-02T08:24:46;97764.91;;;23.05;66.03
13235;BME280;6683;48.506;9.050;2023-07-02T08:27:51;97770.22;;;23.16;65.55
13235;BME280;6683;48.506;9.050;2023-07-02T08:30:53;97776.09;;;23.28;65.49
13235;BME280;6683;48.506;9.050;2023-07-02T08:33:55;97774.66;;;23.45;65.13
13235;BME280;6683;48.506;9.050;2023-07-02T08:36:57;97772.69;;;23.61;65.09
13235;BME280;6683;48.506;9.050;2023-07-02T08:39:59;97764.25;;;23.72;64.62
13235;BME280;6683;48.506;9.050;2023-07-02T08:43:03;97774.38;;;23.91;64.56
13235;BME280;6683;48.506;9.050;2023-07-02T08:46:06;97761.53;;;24.11;64.65
13235;BME280;6683;48.506;9.050;2023-07-02T08:49:09;97759.16;;;24.33;63.87
13235;BME280;6683;48.506;9.050;2023-07-02T08:52:11;97753.28;;;24.55;63.25
13235;BME280;6683;48.506;9.050;2023-07-02T08:55:13;97751.78;;;24.68;62.57
13235;BME280;6683;48.506;9.050;2023-07-02T08:58:17;97754.41;;;24.78;61.75
13235;BME280;6683;48.506;9.050;2023-07-02T09:01:19;97752.91;;;24.90;61.57
13235;BME280;6683;48.506;9.050;2023-07-02T09:04:24;97754.81;;;25.08;61.33
13235;BME280;6683;48.506;9.050;2023-07-02T09:07:26;97751.63;;;25.25;60.88
13235;BME280;6683;48.506;9.050;2023-07-02T09:10:29;97748.72;;;25.40;60.43
13235;BME280;6683;48.506;9.050;2023-07-02T09:13:42;97748.38;;;25.47;60.23
13235;BME280;6683;48.506;9.050;2023-07-02T09:16:45;97748.44;;;25.60;59.41
13235;BME280;6683;48.506;9.050;2023-07-02T09:19:50;97741.78;;;25.71;58.49
13235;BME280;6683;48.506;9.050;2023-07-02T09:22:56;97748.34;;;25.84;57.96
13235;BME280;6683;48.506;9.050;2023-07-02T09:25:58;97756.09;;;26.04;58.01
13235;BME280;6683;48.506;9.050;2023-07-02T09:29:05;97758.38;;;26.16;57.56
13235;BME280;6683;48.506;9.050;2023-07-02T09:32:07;97733.34;;;26.24;56.91
13235;BME280;6683;48.506;9.050;2023-07-02T09:35:11;97750.59;;;26.28;55.88
13235;BME280;6683;48.506;9.050;2023-07-02T09:38:13;97742.09;;;26.34;55.94
13235;BME280;6683;48.506;9.050;2023-07-02T09:41:16;97748.13;;;26.45;56.31
13235;BME280;6683;48.506;9.050;2023-07-02T09:44:19;97736.28;;;26.54;55.48
13235;BME280;6683;48.506;9.050;2023-07-02T09:47:22;97729.88;;;26.64;54.38
13235;BME280;6683;48.506;9.050;2023-07-02T09:50:27;97737.53;;;26.75;54.04
13235;BME280;6683;48.506;9.050;2023-07-02T09:53:30;97730.31;;;26.84;53.95
13235;BME280;6683;48.506;9.050;2023-07-02T09:56:33;97733.41;;;26.91;53.16
13235;BME280;6683;48.506;9.050;2023-07-02T09:59:38;97730.28;;;26.98;53.29
13235;BME280;6683;48.506;9.050;2023-07-02T10:02:41;97722.25;;;27.07;52.34
13235;BME280;6683;48.506;9.050;2023-07-02T10:05:43;97718.81;;;27.15;52.40
13235;BME280;6683;48.506;9.050;2023-07-02T10:08:53;97726.53;;;27.21;52.16
13235;BME280;6683;48.506;9.050;2023-07-02T10:11:56;97736.47;;;27.26;51.32
13235;BME280;6683;48.506;9.050;2023-07-02T10:15:00;97733.06;;;27.20;51.48
13235;BME280;6683;48.506;9.050;2023-07-02T10:18:03;97723.00;;;27.21;51.88
13235;BME280;6683;48.506;9.050;2023-07-02T10:21:16;97727.53;;;27.25;51.65
13235;BME280;6683;48.506;9.050;2023-07-02T10:24:19;97728.94;;;27.36;51.80
13235;BME280;6683;48.506;9.050;2023-07-02T10:27:21;97728.28;;;27.53;51.43
13235;BME280;6683;48.506;9.050;2023-07-02T10:30:38;97725.00;;;27.64;50.85
13235;BME280;6683;48.506;9.050;2023-07-02T10:33:43;97716.75;;;27.69;50.98
13235;BME280;6683;48.506;9.050;2023-07-02T10:36:46;97723.16;;;27.74;50.35
13235;BME280;6683;48.506;9.050;2023-07-02T10:39:49;97721.13;;;27.79;50.20
13235;BME280;6683;48.506;9.050;2023-07-02T10:42:53;97726.19;;;27.94;50.20
13235;BME280;6683;48.506;9.050;2023-07-02T10:45:57;97729.03;;;28.11;48.54
13235;BME280;6683;48.506;9.050;2023-07-02T10:49:00;97728.28;;;28.19;47.89
13235;BME280;6683;48.506;9.050;2023-07-02T10:52:03;97715.06;;;28.26;47.80
13235;BME280;6683;48.506;9.050;2023-07-02T10:55:08;97718.63;;;28.35;47.86
13235;BME280;6683;48.506;9.050;2023-07-02T10:58:11;97718.81;;;28.39;47.07
13235;BME280;6683;48.506;9.050;2023-07-02T11:01:23;97717.72;;;28.48;46.81
13235;BME280;6683;48.506;9.050;2023-07-02T11:04:25;97724.59;;;28.55;46.14
13235;BME280;6683;48.506;9.050;2023-07-02T11:07:27;97723.06;;;28.62;45.71
13235;BME280;6683;48.506;9.050;2023-07-02T11:10:30;97716.69;;;28.67;45.50
13235;BME280;6683;48.506;9.050;2023-07-02T11:13:32;97707.28;;;28.64;45.32
13235;BME280;6683;48.506;9.050;2023-07-02T11:16:36;97707.28;;;28.64;45.37
13235;BME280;6683;48.506;9.050;2023-07-02T11:19:40;97711.63;;;28.74;45.73
13235;BME280;6683;48.506;9.050;2023-07-02T11:22:42;97710.22;;;28.85;46.21
13235;BME280;6683;48.506;9.050;2023-07-02T11:25:55;97712.75;;;28.90;46.40
13235;BME280;6683;48.506;9.050;2023-07-02T11:28:58;97707.66;;;28.88;45.99
13235;BME280;6683;48.506;9.050;2023-07-02T11:32:08;97693.72;;;28.81;45.09
13235;BME280;6683;48.506;9.050;2023-07-02T11:35:11;97706.38;;;28.86;44.84
13235;BME280;6683;48.506;9.050;2023-07-02T11:38:13;97691.84;;;28.99;44.95
13235;BME280;6683;48.506;9.050;2023-07-02T11:41:16;97699.84;;;29.12;44.52
13235;BME280;6683;48.506;9.050;2023-07-02T11:44:18;97697.34;;;29.16;43.89
13235;BME280;6683;48.506;9.050;2023-07-02T11:47:22;97697.19;;;29.21;43.65
13235;BME280;6683;48.506;9.050;2023-07-02T11:50:25;97697.50;;;29.28;42.90
13235;BME280;6683;48.506;9.050;2023-07-02T11:53:28;97699.59;;;29.40;43.29
13235;BME280;6683;48.506;9.050;2023-07-02T11:56:30;97695.28;;;29.56;42.74
13235;BME280;6683;48.506;9.050;2023-07-02T11:59:32;97696.53;;;29.67;42.08
13235;BME280;6683;48.506;9.050;2023-07-02T12:02:36;97689.31;;;29.71;40.51
13235;BME280;6683;48.506;9.050;2023-07-02T12:05:38;97690.78;;;29.77;41.16
13235;BME280;6683;48.506;9.050;2023-07-02T12:08:40;97698.63;;;29.87;41.90
13235;BME280;6683;48.506;9.050;2023-07-02T12:11:43;97684.19;;;30.04;40.87
13235;BME280;6683;48.506;9.050;2023-07-02T12:14:46;97698.09;;;30.11;41.13
13235;BME280;6683;48.506;9.050;2023-07-02T12:17:49;97690.22;;;30.18;41.30
13235;BME280;6683;48.506;9.050;2023-07-02T12:20:51;97687.50;;;30.18;40.98
13235;BME280;6683;48.506;9.050;2023-07-02T12:23:54;97681.13;;;30.14;41.56
13235;BME280;6683;48.506;9.050;2023-07-02T12:26:56;97683.38;;;30.03;41.07
13235;BME280;6683;48.506;9.050;2023-07-02T12:29:58;97683.56;;;29.89;40.98
13235;BME280;6683;48.506;9.050;2023-07-02T12:33:11;97680.06;;;29.89;40.63
13235;BME280;6683;48.506;9.050;2023-07-02T12:36:13;97668.50;;;29.92;39.83
13235;BME280;6683;48.506;9.050;2023-07-02T12:39:16;97688.69;;;29.91;38.63
13235;BME280;6683;48.506;9.050;2023-07-02T12:42:18;97693.19;;;29.87;38.97
13235;BME280;6683;48.506;9.050;2023-07-02T12:45:20;97695.09;;;29.86;39.19
13235;BME280;6683;48.506;9.050;2023-07-02T12:48:24;97677.47;;;29.92;39.23
13235;BME280;6683;48.506;9.050;2023-07-02T12:51:26;97676.31;;;30.02;38.00
13235;BME280;6683;48.506;9.050;2023-07-02T12:54:29;97675.53;;;30.10;37.72
13235;BME280;6683;48.506;9.050;2023-07-02T12:57:31;97677.44;;;30.10;37.22
13235;BME280;6683;48.506;9.050;2023-07-02T13:00:33;97682.09;;;30.09;37.28
13235;BME280;6683;48.506;9.050;2023-07-02T13:03:37;97668.59;;;30.13;37.98
13235;BME280;6683;48.506;9.050;2023-07-02T13:06:40;97683.00;;;30.22;38.80
13235;BME280;6683;48.506;9.050;2023-07-02T13:09:43;97679.94;;;30.32;38.38
13235;BME280;6683;48.506;9.050;2023-07-02T13:12:45;97671.28;;;30.38;38.52
13235;BME280;6683;48.506;9.050;2023-07-02T13:15:47;97676.22;;;30.45;37.48
13235;BME280;6683;48.506;9.050;2023-07-02T13:18:51;97660.22;;;30.43;37.78
13235;BME280;6683;48.506;9.050;2023-07-02T13:21:56;97661.47;;;30.46;37.74
13235;BME280;6683;48.506;9.050;2023-07-02T13:24:58;97662.72;;;30.48;37.38
13235;BME280;6683;48.506;9.050;2023-07-02T13:28:00;97654.06;;;30.55;37.85
13235;BME280;6683;48.506;9.050;2023-07-02T13:31:02;97671.28;;;30.67;37.70
13235;BME280;6683;48.506;9.050;2023-07-02T13:34:06;97670.19;;;30.68;37.15
13235;BME280;6683;48.506;9.050;2023-07-02T13:37:09;97660.84;;;30.69;36.75
13235;BME280;6683;48.506;9.050;2023-07-02T13:40:12;97652.56;;;30.66;36.58
13235;BME280;6683;48.506;9.050;2023-07-02T13:43:16;97669.53;;;30.63;36.88
13235;BME280;6683;48.506;9.050;2023-07-02T13:46:18;97655.19;;;30.54;37.42
13235;BME280;6683;48.506;9.050;2023-07-02T13:49:22;97666.44;;;30.44;37.16
13235;BME280;6683;48.506;9.050;2023-07-02T13:52:24;97669.88;;;30.32;37.79
13235;BME280;6683;48.506;9.050;2023-07-02T13:55:26;97659.56;;;30.29;38.27
13235;BME280;6683;48.506;9.050;2023-07-02T13:58:46;97658.63;;;30.34;38.80
13235;BME280;6683;48.506;9.050;2023-07-02T14:01:49;97670.00;;;30.36;39.03
13235;BME280;6683;48.506;9.050;2023-07-02T14:04:52;97670.66;;;30.24;39.00
13235;BME280;6683;48.506;9.050;2023-07-02T14:07:54;97668.59;;;30.13;39.19
13235;BME280;6683;48.506;9.050;2023-07-02T14:10:57;97668.16;;;30.02;39.13
13235;BME280;6683;48.506;9.050;2023-07-02T14:14:00;97665.50;;;29.85;38.37
13235;BME280;6683;48.506;9.050;2023-07-02T14:17:03;97664.25;;;29.74;39.04
13235;BME280;6683;48.506;9.050;2023-07-02T14:20:08;97668.38;;;29.63;39.14
13235;BME280;6683;48.506;9.050;2023-07-02T14:23:10;97665.50;;;29.59;39.48
13235;BME280;6683;48.506;9.050;2023-07-02T14:26:13;97670.47;;;29.66;39.64
13235;BME280;6683;48.506;9.050;2023-07-02T14:29:16;97664.69;;;29.67;39.13
13235;BME280;6683;48.506;9.050;2023-07-02T14:32:19;97667.56;;;29.71;39.45
13235;BME280;6683;48.506;9.050;2023-07-02T14:35:21;97656.88;;;29.74;39.11
13235;BME280;6683;48.506;9.050;2023-07-02T14:38:28;97658.63;;;29.79;38.27
13235;BME280;6683;48.506;9.050;2023-07-02T14:41:31;97666.16;;;29.73;38.07
13235;BME280;6683;48.506;9.050;2023-07-02T14:44:37;97663.25;;;29.61;38.16
13235;BME280;6683;48.506;9.050;2023-07-02T14:47:39;97646.81;;;29.58;38.56
13235;BME280;6683;48.506;9.050;2023-07-02T14:50:44;97659.94;;;29.56;38.70
13235;BME280;6683;48.506;9.050;2023-07-02T14:53:46;97658.94;;;29.60;38.87
13235;BME280;6683;48.506;9.050;2023-07-02T14:56:49;97666.59;;;29.67;38.96
13235;BME280;6683;48.506;9.050;2023-07-02T14:59:53;97659.09;;;29.64;37.97
13235;BME280;6683;48.506;9.050;2023-07-02T15:02:55;97659.59;;;29.57;38.41
13235;BME280;6683;48.506;9.050;2023-07-02T15:06:07;97658.97;;;29.52;38.90
13235;BME280;6683;48.506;9.050;2023-07-02T15:09:09;97661.22;;;29.50;39.29
13235;BME280;6683;48.506;9.050;2023-07-02T15:12:11;97658.78;;;29.48;39.20
13235;BME280;6683;48.506;9.050;2023-07-02T15:15:16;97654.31;;;29.44;38.31
13235;BME280;6683;48.506;9.050;2023-07-02T15:18:18;97659.44;;;29.45;38.38
13235;BME280;6683;48.506;9.050;2023-07-02T15:21:21;97658.66;;;29.45;38.78
13235;BME280;6683;48.506;9.050;2023-07-02T15:24:25;97662.78;;;29.42;39.24
13235;BME280;6683;48.506;9.050;2023-07-02T15:27:27;97654.16;;;29.40;39.33
13235;BME280;6683;48.506;9.050;2023-07-02T15:30:32;97653.19;;;29.45;39.51
13235;BME280;6683;48.506;9.050;2023-07-02T15:33:35;97660.88;;;29.43;39.14
13235;BME280;6683;48.506;9.050;2023-07-02T15:36:37;97645.53;;;29.47;39.25
13235;BME280;6683;48.506;9.050;2023-07-02T15:39:39;97658.31;;;29.55;39.75
13235;BME280;6683;48.506;9.050;2023-07-02T15:42:41;97653.50;;;29.60;39.42
13235;BME280;6683;48.506;9.050;2023-07-02T15:45:45;97654.16;;;29.66;38.76
13235;BME280;6683;48.506;9.050;2023-07-02T15:48:48;97642.78;;;29.72;39.24
13235;BME280;6683;48.506;9.050;2023-07-02T15:51:51;97662.63;;;29.73;38.73
13235;BME280;6683;48.506;9.050;2023-07-02T15:54:53;97671.09;;;29.71;38.61
13235;BME280;6683;48.506;9.050;2023-07-02T15:57:55;97663.59;;;29.68;38.74
13235;BME280;6683;48.506;9.050;2023-07-02T16:01:10;97666.00;;;29.61;38.72
13235;BME280;6683;48.506;9.050;2023-07-02T16:04:12;97658.31;;;29.55;38.62
13235;BME280;6683;48.506;9.050;2023-07-02T16:07:15;97658.63;;;29.53;38.48
13235;BME280;6683;48.506;9.050;2023-07-02T16:10:18;97664.09;;;29.53;38.65
13235;BME280;6683;48.506;9.050;2023-07-02T16:13:20;97666.94;;;29.57;38.53
13235;BME280;6683;48.506;9.050;2023-07-02T16:16:24;97675.25;;;29.60;38.41
13235;BME280;6683;48.506;9.050;2023-07-02T16:19:26;97671.56;;;29.65;38.97
13235;BME280;6683;48.506;9.050;2023-07-02T16:22:28;97671.28;;;29.66;38.50